sensor_id;sensor_type;location;lat;lon;timestamp;temperature;humidity
20041;DHT22;10181;48.072;9.884;2022-08-19T00:02:04;16.50;99.90
20041;DHT22;10181;48.072;9.884;2022-08-19T00:04:34;16.50;99.90
20041;DHT22;10181;48.072;9.884;2022-08-19T00:07:03;16.50;99.90
20041;DHT22;10181;48.072;9.884;2022-08-19T00:09:29;16.50;99.90
20041;DHT22;10181;48.072;9.884;2022-08-19T00:11:56;16.50;99.90
20041;DHT22;10181;48.072;9.884;2022-08-19T00:14:24;16.50;99.90
20041;DHT22;10181;48.072;9.884;2022-08-19T00:16:51;16.50;99.90
20041;DHT22;10181;48.072;9.884;2022-08-19T00:19:20;16.50;99.90
20041;DHT22;10181;48.072;9.884;2022-08-19T00:21:46;16.50;99.90
20041;DHT22;10181;48.072;9.884;2022-08-19T00:24:13;16.50;99.90
20041;DHT22;10181;48.072;9.884;2022-08-19T00:26:41;16.50;99.90
20041;DHT22;10181;48.072;9.884;2022-08-19T00:29:09;16.50;99.90
20041;DHT22;10181;48.072;9.884;2022-08-19T00:31:35;16.50;99.90
20041;DHT22;10181;48.072;9.884;2022-08-19T00:34:01;16.50;99.90
20041;DHT22;10181;48.072;9.884;2022-08-19T00:36:28;16.50;99.90
20041;DHT22;10181;48.072;9.884;2022-08-19T00:38:54;16.50;99.90
20041;DHT22;10181;48.072;9.884;2022-08-19T00:41:22;16.50;99.90
20041;DHT22;10181;48.072;9.884;2022-08-19T00:46:23;16.50;99.90
20041;DHT22;10181;48.072;9.884;2022-08-19T00:48:48;16.50;99.90
20041;DHT22;10181;48.072;9.884;2022-08-19T00:51:14;16.50;99.90
20041;DHT22;10181;48.072;9.884;2022-08-19T00:53:40;16.50;99.90
20041;DHT22;10181;48.072;9.884;2022-08-19T00:56:05;16.50;99.90
20041;DHT22;10181;48.072;9.884;2022-08-19T00:58:33;16.50;99.90
20041;DHT22;10181;48.072;9.884;2022-08-19T01:01:01;16.50;99.90
20041;DHT22;10181;48.072;9.884;2022-08-19T01:03:27;16.50;99.90
20041;DHT22;10181;48.072;9.884;2022-08-19T01:05:54;16.50;99.90
20041;DHT22;10181;48.072;9.884;2022-08-19T01:08:20;16.50;99.90
20041;DHT22;10181;48.072;9.884;2022-08-19T01:10:55;16.50;99.90
20041;DHT22;10181;48.072;9.884;2022-08-19T01:13:24;16.60;99.90
20041;DHT22;10181;48.072;9.884;2022-08-19T01:15:57;16.60;99.90
20041;DHT22;10181;48.072;9.884;2022-08-19T01:18:23;16.60;99.90
20041;DHT22;10181;48.072;9.884;2022-08-19T01:20:50;16.50;99.90
20041;DHT22;10181;48.072;9.884;2022-08-19T01:23:17;16.50;99.90
20041;DHT22;10181;48.072;9.884;2022-08-19T01:25:51;16.50;99.90
20041;DHT22;10181;48.072;9.884;2022-08-19T01:28:24;16.50;99.90
20041;DHT22;10181;48.072;9.884;2022-08-19T01:30:54;16.50;99.90
20041;DHT22;10181;48.072;9.884;2022-08-19T01:33:21;16.50;99.90
20041;DHT22;10181;48.072;9.884;2022-08-19T01:35:47;16.50;99.90
20041;DHT22;10181;48.072;9.884;2022-08-19T01:38:25;16.50;99.90
20041;DHT22;10181;48.072;9.884;2022-08-19T01:40:52;16.50;99.90
20041;DHT22;10181;48.072;9.884;2022-08-19T01:43:18;16.50;99.90
20041;DHT22;10181;48.072;9.884;2022-08-19T01:45:45;16.60;99.90
20041;DHT22;10181;48.072;9.884;2022-08-19T01:48:11;16.50;99.90
20041;DHT22;10181;48.072;9.884;2022-08-19T01:50:38;16.50;99.90
20041;DHT22;10181;48.072;9.884;2022-08-19T01:53:07;16.50;99.90
20041;DHT22;10181;48.072;9.884;2022-08-19T01:55:37;16.40;99.90
20041;DHT22;10181;48.072;9.884;2022-08-19T01:58:05;16.40;99.90
20041;DHT22;10181;48.072;9.884;2022-08-19T02:00:34;16.30;99.90
20041;DHT22;10181;48.072;9.884;2022-08-19T02:03:00;16.30;99.90
20041;DHT22;10181;48.072;9.884;2022-08-19T02:05:26;16.20;99.90
20041;DHT22;10181;48.072;9.884;2022-08-19T02:07:57;16.10;99.90
20041;DHT22;10181;48.072;9.884;2022-08-19T02:10:24;16.10;99.90
20041;DHT22;10181;48.072;9.884;2022-08-19T02:12:50;16.00;99.90
20041;DHT22;10181;48.072;9.884;2022-08-19T02:15:17;16.00;99.90
20041;DHT22;10181;48.072;9.884;2022-08-19T02:17:44;16.00;99.90
20041;DHT22;10181;48.072;9.884;2022-08-19T02:20:10;16.00;99.90
20041;DHT22;10181;48.072;9.884;2022-08-19T02:22:37;15.90;99.90
20041;DHT22;10181;48.072;9.884;2022-08-19T02:25:07;15.90;99.90
20041;DHT22;10181;48.072;9.884;2022-08-19T02:27:33;15.90;99.90
20041;DHT22;10181;48.072;9.884;2022-08-19T02:29:59;15.90;99.90
20041;DHT22;10181;48.072;9.884;2022-08-19T02:32:26;15.90;99.90
20041;DHT22;10181;48.072;9.884;2022-08-19T02:34:51;15.90;99.90
20041;DHT22;10181;48.072;9.884;2022-08-19T02:37:17;15.90;99.90
20041;DHT22;10181;48.072;9.884;2022-08-19T02:40:02;15.90;99.90
20041;DHT22;10181;48.072;9.884;2022-08-19T02:42:28;15.80;99.90
20041;DHT22;10181;48.072;9.884;2022-08-19T02:44:55;15.80;99.90
20041;DHT22;10181;48.072;9.884;2022-08-19T02:47:21;15.90;99.90
20041;DHT22;10181;48.072;9.884;2022-08-19T02:49:47;15.90;99.90
20041;DHT22;10181;48.072;9.884;2022-08-19T02:52:15;15.90;99.90
20041;DHT22;10181;48.072;9.884;2022-08-19T02:54:41;15.80;99.90
20041;DHT22;10181;48.072;9.884;2022-08-19T02:57:07;15.80;99.90
20041;DHT22;10181;48.072;9.884;2022-08-19T02:59:34;15.80;99.90
20041;DHT22;10181;48.072;9.884;2022-08-19T03:01:59;15.80;99.90
20041;DHT22;10181;48.072;9.884;2022-08-19T03:04:25;15.80;99.90
20041;DHT22;10181;48.072;9.884;2022-08-19T03:06:51;15.80;99.90
20041;DHT22;10181;48.072;9.884;2022-08-19T03:09:18;15.80;99.90
20041;DHT22;10181;48.072;9.884;2022-08-19T03:11:44;15.80;99.90
20041;DHT22;10181;48.072;9.884;2022-08-19T03:14:10;15.80;99.90
20041;DHT22;10181;48.072;9.884;2022-08-19T03:16:46;15.80;99.90
20041;DHT22;10181;48.072;9.884;2022-08-19T03:19:13;15.80;99.90
20041;DHT22;10181;48.072;9.884;2022-08-19T03:21:39;15.80;99.90
20041;DHT22;10181;48.072;9.884;2022-08-19T03:24:07;15.80;99.90
20041;DHT22;10181;48.072;9.884;2022-08-19T03:26:37;15.80;99.90
20041;DHT22;10181;48.072;9.884;2022-08-19T03:29:03;15.80;99.90
20041;DHT22;10181;48.072;9.884;2022-08-19T03:31:29;15.80;99.90
20041;DHT22;10181;48.072;9.884;2022-08-19T03:33:56;15.80;99.90
20041;DHT22;10181;48.072;9.884;2022-08-19T03:36:25;15.80;99.90
20041;DHT22;10181;48.072;9.884;2022-08-19T03:38:58;15.80;99.90
20041;DHT22;10181;48.072;9.884;2022-08-19T03:41:28;15.70;99.90
20041;DHT22;10181;48.072;9.884;2022-08-19T03:43:56;15.70;99.90
20041;DHT22;10181;48.072;9.884;2022-08-19T03:46:25;15.70;99.90
20041;DHT22;10181;48.072;9.884;2022-08-19T03:48:53;15.70;99.90
20041;DHT22;10181;48.072;9.884;2022-08-19T03:51:25;15.70;99.90
20041;DHT22;10181;48.072;9.884;2022-08-19T03:53:54;15.60;99.90
20041;DHT22;10181;48.072;9.884;2022-08-19T03:56:21;15.60;99.90
20041;DHT22;10181;48.072;9.884;2022-08-19T03:58:47;15.60;99.90
20041;DHT22;10181;48.072;9.884;2022-08-19T04:01:16;15.60;99.90
20041;DHT22;10181;48.072;9.884;2022-08-19T04:03:44;15.60;99.90
20041;DHT22;10181;48.072;9.884;2022-08-19T04:06:21;15.60;99.90
20041;DHT22;10181;48.072;9.884;2022-08-19T04:08:49;15.60;99.90
20041;DHT22;10181;48.072;9.884;2022-08-19T04:11:18;15.60;99.90
20041;DHT22;10181;48.072;9.884;2022-08-19T04:13:47;15.60;99.90
20041;DHT22;10181;48.072;9.884;2022-08-19T04:16:13;15.60;99.90
20041;DHT22;10181;48.072;9.884;2022-08-19T04:18:40;15.60;99.90
20041;DHT22;10181;48.072;9.884;2022-08-19T04:21:06;15.60;99.90
20041;DHT22;10181;48.072;9.884;2022-08-19T04:23:33;15.60;99.90
20041;DHT22;10181;48.072;9.884;2022-08-19T04:26:01;15.50;99.90
20041;DHT22;10181;48.072;9.884;2022-08-19T04:28:27;15.50;99.90
20041;DHT22;10181;48.072;9.884;2022-08-19T04:30:54;15.60;99.90
20041;DHT22;10181;48.072;9.884;2022-08-19T04:33:23;15.60;99.90
20041;DHT22;10181;48.072;9.884;2022-08-19T04:35:50;15.60;99.90
20041;DHT22;10181;48.072;9.884;2022-08-19T04:38:18;15.60;99.90
20041;DHT22;10181;48.072;9.884;2022-08-19T04:40:47;15.70;99.90
20041;DHT22;10181;48.072;9.884;2022-08-19T04:43:32;15.70;99.90
20041;DHT22;10181;48.072;9.884;2022-08-19T04:46:03;15.70;99.90
20041;DHT22;10181;48.072;9.884;2022-08-19T04:48:29;15.70;99.90
20041;DHT22;10181;48.072;9.884;2022-08-19T04:50:56;15.70;99.90
20041;DHT22;10181;48.072;9.884;2022-08-19T04:53:31;15.70;99.90
20041;DHT22;10181;48.072;9.884;2022-08-19T04:55:59;15.70;99.90
20041;DHT22;10181;48.072;9.884;2022-08-19T04:58:27;15.80;99.90
20041;DHT22;10181;48.072;9.884;2022-08-19T05:00:53;15.80;99.90
20041;DHT22;10181;48.072;9.884;2022-08-19T05:03:19;15.80;99.90
20041;DHT22;10181;48.072;9.884;2022-08-19T05:05:46;15.80;99.90
20041;DHT22;10181;48.072;9.884;2022-08-19T05:08:16;15.80;99.90
20041;DHT22;10181;48.072;9.884;2022-08-19T05:10:46;15.80;99.90
20041;DHT22;10181;48.072;9.884;2022-08-19T05:13:12;15.80;99.90
20041;DHT22;10181;48.072;9.884;2022-08-19T05:15:39;15.80;99.90
20041;DHT22;10181;48.072;9.884;2022-08-19T05:18:04;15.80;99.90
20041;DHT22;10181;48.072;9.884;2022-08-19T05:20:48;15.80;99.90
20041;DHT22;10181;48.072;9.884;2022-08-19T05:23:33;15.80;99.90
20041;DHT22;10181;48.072;9.884;2022-08-19T05:25:58;15.80;99.90
20041;DHT22;10181;48.072;9.884;2022-08-19T05:28:24;15.80;99.90
20041;DHT22;10181;48.072;9.884;2022-08-19T05:30:50;15.80;99.90
20041;DHT22;10181;48.072;9.884;2022-08-19T05:33:17;15.80;99.90
20041;DHT22;10181;48.072;9.884;2022-08-19T05:35:43;15.90;99.90
20041;DHT22;10181;48.072;9.884;2022-08-19T05:38:10;15.90;99.90
20041;DHT22;10181;48.072;9.884;2022-08-19T05:40:38;15.90;99.90
20041;DHT22;10181;48.072;9.884;2022-08-19T05:43:05;15.90;99.90
20041;DHT22;10181;48.072;9.884;2022-08-19T05:45:32;15.90;99.90
20041;DHT22;10181;48.072;9.884;2022-08-19T05:47:58;15.90;99.90
20041;DHT22;10181;48.072;9.884;2022-08-19T05:50:24;16.00;99.90
20041;DHT22;10181;48.072;9.884;2022-08-19T05:52:52;16.00;99.90
20041;DHT22;10181;48.072;9.884;2022-08-19T05:55:18;16.00;99.90
20041;DHT22;10181;48.072;9.884;2022-08-19T05:57:46;16.00;99.90
20041;DHT22;10181;48.072;9.884;2022-08-19T06:00:12;16.00;99.90
20041;DHT22;10181;48.072;9.884;2022-08-19T06:02:40;16.00;99.90
20041;DHT22;10181;48.072;9.884;2022-08-19T06:05:06;16.00;99.90
20041;DHT22;10181;48.072;9.884;2022-08-19T06:07:35;15.90;99.90
20041;DHT22;10181;48.072;9.884;2022-08-19T06:10:05;16.00;99.90
20041;DHT22;10181;48.072;9.884;2022-08-19T06:12:32;16.00;99.90
20041;DHT22;10181;48.072;9.884;2022-08-19T06:15:08;16.00;99.90
20041;DHT22;10181;48.072;9.884;2022-08-19T06:17:34;16.00;99.90
20041;DHT22;10181;48.072;9.884;2022-08-19T06:20:01;16.10;99.90
20041;DHT22;10181;48.072;9.884;2022-08-19T06:22:27;16.10;99.90
20041;DHT22;10181;48.072;9.884;2022-08-19T06:24:53;16.20;99.90
20041;DHT22;10181;48.072;9.884;2022-08-19T06:27:20;16.20;99.90
20041;DHT22;10181;48.072;9.884;2022-08-19T06:29:46;16.10;99.90
20041;DHT22;10181;48.072;9.884;2022-08-19T06:32:14;16.00;99.90
20041;DHT22;10181;48.072;9.884;2022-08-19T06:34:42;16.00;99.90
20041;DHT22;10181;48.072;9.884;2022-08-19T06:37:08;16.00;99.90
20041;DHT22;10181;48.072;9.884;2022-08-19T06:39:37;15.90;99.90
20041;DHT22;10181;48.072;9.884;2022-08-19T06:42:05;16.00;99.90
20041;DHT22;10181;48.072;9.884;2022-08-19T06:44:34;16.00;99.90
20041;DHT22;10181;48.072;9.884;2022-08-19T06:47:07;16.00;99.90
20041;DHT22;10181;48.072;9.884;2022-08-19T06:49:33;15.90;99.90
20041;DHT22;10181;48.072;9.884;2022-08-19T06:51:59;15.90;99.90
20041;DHT22;10181;48.072;9.884;2022-08-19T06:54:26;15.90;99.90
20041;DHT22;10181;48.072;9.884;2022-08-19T06:56:54;15.90;99.90
20041;DHT22;10181;48.072;9.884;2022-08-19T06:59:22;15.90;99.90
20041;DHT22;10181;48.072;9.884;2022-08-19T07:01:53;15.90;99.90
20041;DHT22;10181;48.072;9.884;2022-08-19T07:04:28;15.90;99.90
20041;DHT22;10181;48.072;9.884;2022-08-19T07:07:09;16.00;99.90
20041;DHT22;10181;48.072;9.884;2022-08-19T07:09:39;16.00;99.90
20041;DHT22;10181;48.072;9.884;2022-08-19T07:12:08;16.00;99.90
20041;DHT22;10181;48.072;9.884;2022-08-19T07:14:35;16.00;99.90
20041;DHT22;10181;48.072;9.884;2022-08-19T07:17:04;16.00;99.90
20041;DHT22;10181;48.072;9.884;2022-08-19T07:19:30;16.00;99.90
20041;DHT22;10181;48.072;9.884;2022-08-19T07:21:57;16.10;99.90
20041;DHT22;10181;48.072;9.884;2022-08-19T07:24:25;16.00;99.90
20041;DHT22;10181;48.072;9.884;2022-08-19T07:26:53;16.00;99.90
20041;DHT22;10181;48.072;9.884;2022-08-19T07:29:20;16.10;99.90
20041;DHT22;10181;48.072;9.884;2022-08-19T07:31:51;16.00;99.90
20041;DHT22;10181;48.072;9.884;2022-08-19T07:34:18;16.00;99.90
20041;DHT22;10181;48.072;9.884;2022-08-19T07:36:44;16.00;99.90
20041;DHT22;10181;48.072;9.884;2022-08-19T07:39:19;16.00;99.90
20041;DHT22;10181;48.072;9.884;2022-08-19T07:41:47;16.00;99.90
20041;DHT22;10181;48.072;9.884;2022-08-19T07:44:13;16.00;99.90
20041;DHT22;10181;48.072;9.884;2022-08-19T07:46:42;16.00;99.90
20041;DHT22;10181;48.072;9.884;2022-08-19T07:49:10;16.00;99.90
20041;DHT22;10181;48.072;9.884;2022-08-19T07:51:51;16.00;99.90
20041;DHT22;10181;48.072;9.884;2022-08-19T07:54:18;16.00;99.90
20041;DHT22;10181;48.072;9.884;2022-08-19T07:56:44;16.00;99.90
20041;DHT22;10181;48.072;9.884;2022-08-19T07:59:10;16.00;99.90
20041;DHT22;10181;48.072;9.884;2022-08-19T08:01:37;16.00;99.90
20041;DHT22;10181;48.072;9.884;2022-08-19T08:04:05;16.00;99.90
20041;DHT22;10181;48.072;9.884;2022-08-19T08:06:50;16.00;99.90
20041;DHT22;10181;48.072;9.884;2022-08-19T08:09:37;16.00;99.90
20041;DHT22;10181;48.072;9.884;2022-08-19T08:12:09;16.00;99.90
20041;DHT22;10181;48.072;9.884;2022-08-19T08:14:38;16.00;99.90
20041;DHT22;10181;48.072;9.884;2022-08-19T08:17:05;16.00;99.90
20041;DHT22;10181;48.072;9.884;2022-08-19T08:19:32;16.00;99.90
20041;DHT22;10181;48.072;9.884;2022-08-19T08:21:59;16.00;99.90
20041;DHT22;10181;48.072;9.884;2022-08-19T08:24:27;16.00;99.90
20041;DHT22;10181;48.072;9.884;2022-08-19T08:26:54;16.00;99.90
20041;DHT22;10181;48.072;9.884;2022-08-19T08:29:20;16.00;99.90
20041;DHT22;10181;48.072;9.884;2022-08-19T08:31:46;16.00;99.90
20041;DHT22;10181;48.072;9.884;2022-08-19T08:34:14;16.10;99.90
20041;DHT22;10181;48.072;9.884;2022-08-19T08:36:42;16.10;99.90
20041;DHT22;10181;48.072;9.884;2022-08-19T08:39:13;16.10;99.90
20041;DHT22;10181;48.072;9.884;2022-08-19T08:44:22;16.10;99.90
20041;DHT22;10181;48.072;9.884;2022-08-19T08:46:55;16.10;99.90
20041;DHT22;10181;48.072;9.884;2022-08-19T08:49:38;16.10;99.90
20041;DHT22;10181;48.072;9.884;2022-08-19T08:52:11;16.10;99.90
20041;DHT22;10181;48.072;9.884;2022-08-19T08:54:42;16.10;99.90
20041;DHT22;10181;48.072;9.884;2022-08-19T08:57:15;16.20;99.90
20041;DHT22;10181;48.072;9.884;2022-08-19T08:59:46;16.30;99.90
20041;DHT22;10181;48.072;9.884;2022-08-19T09:02:16;16.30;99.90
20041;DHT22;10181;48.072;9.884;2022-08-19T09:04:42;16.40;99.90
20041;DHT22;10181;48.072;9.884;2022-08-19T09:07:37;16.50;99.90
20041;DHT22;10181;48.072;9.884;2022-08-19T09:10:39;16.40;99.90
20041;DHT22;10181;48.072;9.884;2022-08-19T09:15:46;16.30;99.90
20041;DHT22;10181;48.072;9.884;2022-08-19T09:18:14;16.30;99.90
20041;DHT22;10181;48.072;9.884;2022-08-19T09:20:41;16.30;99.90
20041;DHT22;10181;48.072;9.884;2022-08-19T09:23:07;16.30;99.90
20041;DHT22;10181;48.072;9.884;2022-08-19T09:25:33;16.30;99.90
20041;DHT22;10181;48.072;9.884;2022-08-19T09:28:00;16.40;99.90
20041;DHT22;10181;48.072;9.884;2022-08-19T09:30:31;16.40;99.90
20041;DHT22;10181;48.072;9.884;2022-08-19T09:32:57;16.50;99.90
20041;DHT22;10181;48.072;9.884;2022-08-19T09:35:25;16.50;99.90
20041;DHT22;10181;48.072;9.884;2022-08-19T09:37:52;16.40;99.90
20041;DHT22;10181;48.072;9.884;2022-08-19T09:40:18;16.40;99.90
20041;DHT22;10181;48.072;9.884;2022-08-19T09:42:45;16.40;99.90
20041;DHT22;10181;48.072;9.884;2022-08-19T09:45:16;16.40;99.90
20041;DHT22;10181;48.072;9.884;2022-08-19T09:47:42;16.40;99.90
20041;DHT22;10181;48.072;9.884;2022-08-19T09:50:10;16.40;99.90
20041;DHT22;10181;48.072;9.884;2022-08-19T09:52:37;16.40;99.90
20041;DHT22;10181;48.072;9.884;2022-08-19T09:55:04;16.40;99.90
20041;DHT22;10181;48.072;9.884;2022-08-19T09:57:30;16.40;99.90
20041;DHT22;10181;48.072;9.884;2022-08-19T09:59:56;16.40;99.90
20041;DHT22;10181;48.072;9.884;2022-08-19T10:02:21;16.40;99.90
20041;DHT22;10181;48.072;9.884;2022-08-19T10:04:47;16.40;99.90
20041;DHT22;10181;48.072;9.884;2022-08-19T10:07:31;16.30;99.90
20041;DHT22;10181;48.072;9.884;2022-08-19T10:09:56;16.30;99.90
20041;DHT22;10181;48.072;9.884;2022-08-19T10:12:22;16.30;99.90
20041;DHT22;10181;48.072;9.884;2022-08-19T10:14:48;16.30;99.90
20041;DHT22;10181;48.072;9.884;2022-08-19T10:17:16;16.30;99.90
20041;DHT22;10181;48.072;9.884;2022-08-19T10:19:43;16.30;99.90
20041;DHT22;10181;48.072;9.884;2022-08-19T10:22:08;16.30;99.90
20041;DHT22;10181;48.072;9.884;2022-08-19T10:24:36;16.30;99.90
20041;DHT22;10181;48.072;9.884;2022-08-19T10:27:02;16.30;99.90
20041;DHT22;10181;48.072;9.884;2022-08-19T10:29:29;16.30;99.90
20041;DHT22;10181;48.072;9.884;2022-08-19T10:31:55;16.30;99.90
20041;DHT22;10181;48.072;9.884;2022-08-19T10:34:24;16.30;99.90
20041;DHT22;10181;48.072;9.884;2022-08-19T10:36:49;16.40;99.90
20041;DHT22;10181;48.072;9.884;2022-08-19T10:39:15;16.30;99.90
20041;DHT22;10181;48.072;9.884;2022-08-19T10:41:41;16.30;99.90
20041;DHT22;10181;48.072;9.884;2022-08-19T10:44:10;16.30;99.90
20041;DHT22;10181;48.072;9.884;2022-08-19T10:46:39;16.30;99.90
20041;DHT22;10181;48.072;9.884;2022-08-19T10:49:07;16.30;99.90
20041;DHT22;10181;48.072;9.884;2022-08-19T10:51:33;16.30;99.90
20041;DHT22;10181;48.072;9.884;2022-08-19T10:54:17;16.30;99.90
20041;DHT22;10181;48.072;9.884;2022-08-19T10:56:43;16.20;99.90
20041;DHT22;10181;48.072;9.884;2022-08-19T10:59:21;16.20;99.90
20041;DHT22;10181;48.072;9.884;2022-08-19T11:01:48;16.20;99.90
20041;DHT22;10181;48.072;9.884;2022-08-19T11:04:15;16.20;99.90
20041;DHT22;10181;48.072;9.884;2022-08-19T11:06:44;16.20;99.90
20041;DHT22;10181;48.072;9.884;2022-08-19T11:09:17;16.20;99.90
20041;DHT22;10181;48.072;9.884;2022-08-19T11:11:43;16.20;99.90
20041;DHT22;10181;48.072;9.884;2022-08-19T11:14:14;16.20;99.90
20041;DHT22;10181;48.072;9.884;2022-08-19T11:16:40;16.20;99.90
20041;DHT22;10181;48.072;9.884;2022-08-19T11:19:09;16.20;99.90
20041;DHT22;10181;48.072;9.884;2022-08-19T11:21:38;16.20;99.90
20041;DHT22;10181;48.072;9.884;2022-08-19T11:24:08;16.20;99.90
20041;DHT22;10181;48.072;9.884;2022-08-19T11:26:36;16.20;99.90
20041;DHT22;10181;48.072;9.884;2022-08-19T11:29:03;16.20;99.90
20041;DHT22;10181;48.072;9.884;2022-08-19T11:31:31;16.20;99.90
20041;DHT22;10181;48.072;9.884;2022-08-19T11:33:58;16.20;99.90
20041;DHT22;10181;48.072;9.884;2022-08-19T11:36:25;16.30;99.90
20041;DHT22;10181;48.072;9.884;2022-08-19T11:38:52;16.20;99.90
20041;DHT22;10181;48.072;9.884;2022-08-19T11:41:19;16.20;99.90
20041;DHT22;10181;48.072;9.884;2022-08-19T11:43:46;16.30;99.90
20041;DHT22;10181;48.072;9.884;2022-08-19T11:46:14;16.30;99.90
20041;DHT22;10181;48.072;9.884;2022-08-19T11:48:40;16.30;99.90
20041;DHT22;10181;48.072;9.884;2022-08-19T11:51:09;16.30;99.90
20041;DHT22;10181;48.072;9.884;2022-08-19T11:53:36;16.30;99.90
20041;DHT22;10181;48.072;9.884;2022-08-19T11:56:03;16.30;99.90
20041;DHT22;10181;48.072;9.884;2022-08-19T11:58:29;16.30;99.90
20041;DHT22;10181;48.072;9.884;2022-08-19T12:00:55;16.30;99.90
20041;DHT22;10181;48.072;9.884;2022-08-19T12:03:21;16.30;99.90
20041;DHT22;10181;48.072;9.884;2022-08-19T12:05:47;16.30;99.90
20041;DHT22;10181;48.072;9.884;2022-08-19T12:08:14;16.30;99.90
20041;DHT22;10181;48.072;9.884;2022-08-19T12:10:41;16.20;99.90
20041;DHT22;10181;48.072;9.884;2022-08-19T12:13:08;16.20;99.90
20041;DHT22;10181;48.072;9.884;2022-08-19T12:15:38;16.30;99.90
20041;DHT22;10181;48.072;9.884;2022-08-19T12:18:07;16.30;99.90
20041;DHT22;10181;48.072;9.884;2022-08-19T12:20:38;16.30;99.90
20041;DHT22;10181;48.072;9.884;2022-08-19T12:23:06;16.30;99.90
20041;DHT22;10181;48.072;9.884;2022-08-19T12:25:32;16.30;99.90
20041;DHT22;10181;48.072;9.884;2022-08-19T12:27:59;16.30;99.90
20041;DHT22;10181;48.072;9.884;2022-08-19T12:30:26;16.30;99.90
20041;DHT22;10181;48.072;9.884;2022-08-19T12:32:52;16.40;99.90
20041;DHT22;10181;48.072;9.884;2022-08-19T12:35:18;16.40;99.90
20041;DHT22;10181;48.072;9.884;2022-08-19T12:37:46;16.40;99.90
20041;DHT22;10181;48.072;9.884;2022-08-19T12:40:14;16.40;99.90
20041;DHT22;10181;48.072;9.884;2022-08-19T12:42:40;16.40;99.90
20041;DHT22;10181;48.072;9.884;2022-08-19T12:45:08;16.40;99.90
20041;DHT22;10181;48.072;9.884;2022-08-19T12:47:35;16.40;99.90
20041;DHT22;10181;48.072;9.884;2022-08-19T12:50:01;16.40;99.90
20041;DHT22;10181;48.072;9.884;2022-08-19T12:52:27;16.50;99.90
20041;DHT22;10181;48.072;9.884;2022-08-19T12:54:54;16.40;99.90
20041;DHT22;10181;48.072;9.884;2022-08-19T12:57:25;16.40;99.90
20041;DHT22;10181;48.072;9.884;2022-08-19T12:59:54;16.40;99.90
20041;DHT22;10181;48.072;9.884;2022-08-19T13:02:20;16.40;99.90
20041;DHT22;10181;48.072;9.884;2022-08-19T13:04:46;16.40;99.90
20041;DHT22;10181;48.072;9.884;2022-08-19T13:07:12;16.40;99.90
20041;DHT22;10181;48.072;9.884;2022-08-19T13:09:38;16.40;99.90
20041;DHT22;10181;48.072;9.884;2022-08-19T13:12:07;16.40;99.90
20041;DHT22;10181;48.072;9.884;2022-08-19T13:14:38;16.40;99.90
20041;DHT22;10181;48.072;9.884;2022-08-19T13:17:04;16.40;99.90
20041;DHT22;10181;48.072;9.884;2022-08-19T13:19:29;16.40;99.90
20041;DHT22;10181;48.072;9.884;2022-08-19T13:21:56;16.40;99.90
20041;DHT22;10181;48.072;9.884;2022-08-19T13:24:23;16.40;99.90
20041;DHT22;10181;48.072;9.884;2022-08-19T13:26:48;16.50;99.90
20041;DHT22;10181;48.072;9.884;2022-08-19T13:29:14;16.50;99.90
20041;DHT22;10181;48.072;9.884;2022-08-19T13:31:58;16.50;99.90
20041;DHT22;10181;48.072;9.884;2022-08-19T13:34:42;16.50;99.90
20041;DHT22;10181;48.072;9.884;2022-08-19T13:37:08;16.50;99.90
20041;DHT22;10181;48.072;9.884;2022-08-19T13:39:36;16.50;99.90
20041;DHT22;10181;48.072;9.884;2022-08-19T13:42:02;16.50;99.90
20041;DHT22;10181;48.072;9.884;2022-08-19T13:44:29;16.50;99.90
20041;DHT22;10181;48.072;9.884;2022-08-19T13:47:02;16.40;99.90
20041;DHT22;10181;48.072;9.884;2022-08-19T13:49:31;16.40;99.90
20041;DHT22;10181;48.072;9.884;2022-08-19T13:51:57;16.30;99.90
20041;DHT22;10181;48.072;9.884;2022-08-19T13:54:22;16.30;99.90
20041;DHT22;10181;48.072;9.884;2022-08-19T13:56:48;16.30;99.90
20041;DHT22;10181;48.072;9.884;2022-08-19T13:59:14;16.30;99.90
20041;DHT22;10181;48.072;9.884;2022-08-19T14:01:40;16.20;99.90
20041;DHT22;10181;48.072;9.884;2022-08-19T14:04:06;16.20;99.90
20041;DHT22;10181;48.072;9.884;2022-08-19T14:06:33;16.20;99.90
20041;DHT22;10181;48.072;9.884;2022-08-19T14:08:59;16.20;99.90
20041;DHT22;10181;48.072;9.884;2022-08-19T14:11:25;16.20;99.90
20041;DHT22;10181;48.072;9.884;2022-08-19T14:13:50;16.20;99.90
20041;DHT22;10181;48.072;9.884;2022-08-19T14:16:16;16.20;99.90
20041;DHT22;10181;48.072;9.884;2022-08-19T14:18:42;16.20;99.90
20041;DHT22;10181;48.072;9.884;2022-08-19T14:21:15;16.20;99.90
20041;DHT22;10181;48.072;9.884;2022-08-19T14:23:41;16.10;99.90
20041;DHT22;10181;48.072;9.884;2022-08-19T14:26:13;16.10;99.90
20041;DHT22;10181;48.072;9.884;2022-08-19T14:28:40;16.10;99.90
20041;DHT22;10181;48.072;9.884;2022-08-19T14:31:11;16.20;99.90
20041;DHT22;10181;48.072;9.884;2022-08-19T14:33:37;16.10;99.90
20041;DHT22;10181;48.072;9.884;2022-08-19T14:36:04;16.10;99.90
20041;DHT22;10181;48.072;9.884;2022-08-19T14:38:30;16.10;99.90
20041;DHT22;10181;48.072;9.884;2022-08-19T14:41:18;16.10;99.90
20041;DHT22;10181;48.072;9.884;2022-08-19T14:43:46;16.10;99.90
20041;DHT22;10181;48.072;9.884;2022-08-19T14:46:14;16.10;99.90
20041;DHT22;10181;48.072;9.884;2022-08-19T14:48:41;16.10;99.90
20041;DHT22;10181;48.072;9.884;2022-08-19T14:51:07;16.10;99.90
20041;DHT22;10181;48.072;9.884;2022-08-19T14:53:33;16.10;99.90
20041;DHT22;10181;48.072;9.884;2022-08-19T14:55:59;16.10;99.90
20041;DHT22;10181;48.072;9.884;2022-08-19T14:58:26;16.10;99.90
20041;DHT22;10181;48.072;9.884;2022-08-19T15:00:51;16.10;99.90
20041;DHT22;10181;48.072;9.884;2022-08-19T15:03:17;16.10;99.90
20041;DHT22;10181;48.072;9.884;2022-08-19T15:05:43;16.10;99.90
20041;DHT22;10181;48.072;9.884;2022-08-19T15:08:09;16.10;99.90
20041;DHT22;10181;48.072;9.884;2022-08-19T15:10:35;16.10;99.90
20041;DHT22;10181;48.072;9.884;2022-08-19T15:13:01;16.20;99.90
20041;DHT22;10181;48.072;9.884;2022-08-19T15:15:27;16.10;99.90
20041;DHT22;10181;48.072;9.884;2022-08-19T15:17:53;16.10;99.90
20041;DHT22;10181;48.072;9.884;2022-08-19T15:20:20;16.20;99.90
20041;DHT22;10181;48.072;9.884;2022-08-19T15:22:48;16.20;99.90
20041;DHT22;10181;48.072;9.884;2022-08-19T15:25:16;16.10;99.90
20041;DHT22;10181;48.072;9.884;2022-08-19T15:27:42;16.20;99.90
20041;DHT22;10181;48.072;9.884;2022-08-19T15:30:09;16.20;99.90
20041;DHT22;10181;48.072;9.884;2022-08-19T15:32:36;16.20;99.90
20041;DHT22;10181;48.072;9.884;2022-08-19T15:35:03;16.20;99.90
20041;DHT22;10181;48.072;9.884;2022-08-19T15:37:30;16.20;99.90
20041;DHT22;10181;48.072;9.884;2022-08-19T15:39:56;16.20;99.90
20041;DHT22;10181;48.072;9.884;2022-08-19T15:42:21;16.20;99.90
20041;DHT22;10181;48.072;9.884;2022-08-19T15:44:47;16.20;99.90